Terminal Aerodrome Forecast
Issued by NWS

Home | Current Version | Previous Version | Text Only | Print | Product List | Glossary On
Versions: 1 2 3 4 5 6 7 8 9 10 11 12 13 14 15 16 17
000
FTUS44 KTSA 011100
TAFXNA
TAF
KXNA 011131Z 0112/0212 00000KT 3SM BR OVC005
      TEMPO 0112/0116 2SM -FZDZ BR
     FM011800 33006KT 5SM BR OVC008
     FM020000 36005KT P6SM OVC012=

USA.gov is the U.S. government's official web portal to all federal, state and local government web resources and services.